sensor_id;sensor_type;location;lat;lon;timestamp;pressure;altitude;pressure_sealevel;temperature;humidity
60099;BME280;62818;49.394;8.686;2023-07-13T00:00:49;100301.72;;;21.90;53.93
60099;BME280;62818;49.394;8.686;2023-07-13T00:01:50;100305.16;;;22.07;55.11
60099;BME280;62818;49.394;8.686;2023-07-13T00:02:51;100297.97;;;21.91;54.57
60099;BME280;62818;49.394;8.686;2023-07-13T00:03:56;100301.78;;;21.95;54.99
60099;BME280;62818;49.394;8.686;2023-07-13T00:04:57;100303.88;;;22.37;54.15
60099;BME280;62818;49.394;8.686;2023-07-13T00:06:01;100300.16;;;22.43;53.63
60099;BME280;62818;49.394;8.686;2023-07-13T00:07:02;100305.84;;;22.20;53.01
60099;BME280;62818;49.394;8.686;2023-07-13T00:08:03;100301.72;;;21.90;54.44
60099;BME280;62818;49.394;8.686;2023-07-13T00:09:03;100305.34;;;22.01;54.01
60099;BME280;62818;49.394;8.686;2023-07-13T00:10:04;100311.88;;;21.83;53.80
60099;BME280;62818;49.394;8.686;2023-07-13T00:11:06;100317.63;;;22.08;54.25
60099;BME280;62818;49.394;8.686;2023-07-13T00:12:32;100316.72;;;22.25;54.23
60099;BME280;62818;49.394;8.686;2023-07-13T00:13:34;100318.91;;;22.28;53.12
60099;BME280;62818;49.394;8.686;2023-07-13T00:14:34;100317.53;;;22.25;52.81
60099;BME280;62818;49.394;8.686;2023-07-13T00:15:35;100317.06;;;22.06;53.86
60099;BME280;62818;49.394;8.686;2023-07-13T00:16:38;100309.97;;;22.49;53.76
60099;BME280;62818;49.394;8.686;2023-07-13T00:17:43;100313.53;;;22.54;53.24
60099;BME280;62818;49.394;8.686;2023-07-13T00:18:47;100314.00;;;22.73;53.07
60099;BME280;62818;49.394;8.686;2023-07-13T00:19:47;100313.59;;;22.86;52.83
60099;BME280;62818;49.394;8.686;2023-07-13T00:20:48;100313.03;;;22.84;52.55
60099;BME280;62818;49.394;8.686;2023-07-13T00:21:49;100314.84;;;22.52;53.52
60099;BME280;62818;49.394;8.686;2023-07-13T00:22:53;100309.66;;;22.72;52.88
60099;BME280;62818;49.394;8.686;2023-07-13T00:23:54;100309.63;;;22.45;53.68
60099;BME280;62818;49.394;8.686;2023-07-13T00:24:54;100312.47;;;21.85;53.92
60099;BME280;62818;49.394;8.686;2023-07-13T00:25:58;100323.88;;;21.92;53.94
60099;BME280;62818;49.394;8.686;2023-07-13T00:26:58;100309.69;;;22.24;54.25
60099;BME280;62818;49.394;8.686;2023-07-13T00:27:59;100309.22;;;22.05;54.40
60099;BME280;62818;49.394;8.686;2023-07-13T00:29:00;100307.50;;;22.21;54.04
60099;BME280;62818;49.394;8.686;2023-07-13T00:30:00;100312.97;;;22.04;54.21
60099;BME280;62818;49.394;8.686;2023-07-13T00:31:01;100306.69;;;22.20;54.69
60099;BME280;62818;49.394;8.686;2023-07-13T00:32:04;100313.66;;;21.56;54.50
60099;BME280;62818;49.394;8.686;2023-07-13T00:33:05;100310.47;;;21.97;55.60
60099;BME280;62818;49.394;8.686;2023-07-13T00:34:06;100306.00;;;21.86;54.95
60099;BME280;62818;49.394;8.686;2023-07-13T00:35:06;100315.75;;;21.71;54.17
60099;BME280;62818;49.394;8.686;2023-07-13T00:36:08;100305.75;;;21.33;55.87
60099;BME280;62818;49.394;8.686;2023-07-13T00:37:09;100308.88;;;21.25;54.89
60099;BME280;62818;49.394;8.686;2023-07-13T00:38:10;100312.78;;;21.72;55.49
60099;BME280;62818;49.394;8.686;2023-07-13T00:39:10;100308.59;;;21.81;55.17
60099;BME280;62818;49.394;8.686;2023-07-13T00:40:12;100299.28;;;22.10;54.63
60099;BME280;62818;49.394;8.686;2023-07-13T00:41:14;100304.38;;;21.69;54.68
60099;BME280;62818;49.394;8.686;2023-07-13T00:42:14;100307.75;;;21.97;55.74
60099;BME280;62818;49.394;8.686;2023-07-13T00:43:20;100314.41;;;22.11;54.81
60099;BME280;62818;49.394;8.686;2023-07-13T00:44:22;100311.16;;;22.09;54.44
60099;BME280;62818;49.394;8.686;2023-07-13T00:46:29;100313.34;;;22.12;55.70
60099;BME280;62818;49.394;8.686;2023-07-13T00:47:32;100311.50;;;22.40;55.07
60099;BME280;62818;49.394;8.686;2023-07-13T00:48:35;100305.06;;;22.46;54.46
60099;BME280;62818;49.394;8.686;2023-07-13T00:49:38;100313.09;;;22.41;53.54
60099;BME280;62818;49.394;8.686;2023-07-13T00:50:39;100309.84;;;22.39;54.50
60099;BME280;62818;49.394;8.686;2023-07-13T00:51:44;100307.28;;;22.54;54.45
60099;BME280;62818;49.394;8.686;2023-07-13T00:52:50;100309.81;;;22.34;54.20
60099;BME280;62818;49.394;8.686;2023-07-13T00:53:56;100311.88;;;22.27;54.08
60099;BME280;62818;49.394;8.686;2023-07-13T00:55:00;100309.56;;;22.35;54.01
60099;BME280;62818;49.394;8.686;2023-07-13T00:56:02;100308.47;;;21.71;54.48
60099;BME280;62818;49.394;8.686;2023-07-13T00:57:07;100315.47;;;21.72;55.62
60099;BME280;62818;49.394;8.686;2023-07-13T00:58:11;100313.00;;;22.31;54.46
60099;BME280;62818;49.394;8.686;2023-07-13T00:59:13;100315.38;;;22.49;53.87
60099;BME280;62818;49.394;8.686;2023-07-13T01:00:20;100312.75;;;22.59;53.91
60099;BME280;62818;49.394;8.686;2023-07-13T01:01:23;100316.94;;;22.45;53.67
60099;BME280;62818;49.394;8.686;2023-07-13T01:02:24;100313.22;;;22.51;53.80
60099;BME280;62818;49.394;8.686;2023-07-13T01:03:25;100314.34;;;22.55;53.87
60099;BME280;62818;49.394;8.686;2023-07-13T01:04:26;100312.81;;;22.37;54.07
60099;BME280;62818;49.394;8.686;2023-07-13T01:05:26;100311.88;;;22.27;54.39
60099;BME280;62818;49.394;8.686;2023-07-13T01:06:27;100311.66;;;22.06;53.63
60099;BME280;62818;49.394;8.686;2023-07-13T01:07:28;100321.53;;;21.79;55.16
60099;BME280;62818;49.394;8.686;2023-07-13T01:08:28;100315.47;;;22.10;54.62
60099;BME280;62818;49.394;8.686;2023-07-13T01:09:29;100323.53;;;21.67;54.92
60099;BME280;62818;49.394;8.686;2023-07-13T01:10:29;100323.06;;;21.54;55.25
60099;BME280;62818;49.394;8.686;2023-07-13T01:11:39;100316.72;;;21.43;54.48
60099;BME280;62818;49.394;8.686;2023-07-13T01:12:40;100323.91;;;21.37;55.43
60099;BME280;62818;49.394;8.686;2023-07-13T01:13:40;100323.88;;;20.88;56.21
60099;BME280;62818;49.394;8.686;2023-07-13T01:14:41;100318.66;;;20.98;55.97
60099;BME280;62818;49.394;8.686;2023-07-13T01:15:45;100321.25;;;21.59;56.36
60099;BME280;62818;49.394;8.686;2023-07-13T01:16:47;100319.53;;;21.53;55.76
60099;BME280;62818;49.394;8.686;2023-07-13T01:17:49;100326.06;;;21.19;55.36
60099;BME280;62818;49.394;8.686;2023-07-13T01:18:50;100330.59;;;21.52;55.04
60099;BME280;62818;49.394;8.686;2023-07-13T01:19:50;100328.56;;;21.80;54.99
60099;BME280;62818;49.394;8.686;2023-07-13T01:20:59;100322.59;;;21.78;55.20
60099;BME280;62818;49.394;8.686;2023-07-13T01:22:04;100326.13;;;21.24;55.71
60099;BME280;62818;49.394;8.686;2023-07-13T01:23:10;100328.81;;;21.24;53.76
60099;BME280;62818;49.394;8.686;2023-07-13T01:24:13;100325.06;;;21.25;53.71
60099;BME280;62818;49.394;8.686;2023-07-13T01:25:13;100332.81;;;21.38;53.04
60099;BME280;62818;49.394;8.686;2023-07-13T01:26:14;100327.16;;;21.39;54.20
60099;BME280;62818;49.394;8.686;2023-07-13T01:27:19;100328.06;;;21.83;53.81
60099;BME280;62818;49.394;8.686;2023-07-13T01:28:23;100325.63;;;22.03;53.56
60099;BME280;62818;49.394;8.686;2023-07-13T01:29:27;100329.56;;;21.74;52.75
60099;BME280;62818;49.394;8.686;2023-07-13T01:30:27;100325.72;;;21.70;54.47
60099;BME280;62818;49.394;8.686;2023-07-13T01:31:27;100325.06;;;21.08;54.44
60099;BME280;62818;49.394;8.686;2023-07-13T01:32:28;100325.66;;;20.65;54.93
60099;BME280;62818;49.394;8.686;2023-07-13T01:33:28;100329.09;;;20.78;56.35
60099;BME280;62818;49.394;8.686;2023-07-13T01:34:29;100334.31;;;20.84;56.10
60099;BME280;62818;49.394;8.686;2023-07-13T01:35:30;100329.41;;;20.64;56.01
60099;BME280;62818;49.394;8.686;2023-07-13T01:36:30;100333.28;;;21.02;56.58
60099;BME280;62818;49.394;8.686;2023-07-13T01:37:31;100332.75;;;21.16;55.72
60099;BME280;62818;49.394;8.686;2023-07-13T01:38:34;100337.97;;;21.23;55.54
60099;BME280;62818;49.394;8.686;2023-07-13T01:39:36;100336.53;;;20.87;57.00
60099;BME280;62818;49.394;8.686;2023-07-13T01:40:37;100336.28;;;20.89;56.71
60099;BME280;62818;49.394;8.686;2023-07-13T01:41:38;100336.94;;;21.62;55.46
60099;BME280;62818;49.394;8.686;2023-07-13T01:42:39;100328.03;;;21.62;55.82
60099;BME280;62818;49.394;8.686;2023-07-13T01:43:39;100331.22;;;21.04;56.64
60099;BME280;62818;49.394;8.686;2023-07-13T01:44:40;100328.53;;;20.92;56.57
60099;BME280;62818;49.394;8.686;2023-07-13T01:45:40;100327.25;;;20.95;56.97
60099;BME280;62818;49.394;8.686;2023-07-13T01:46:41;100330.38;;;21.20;57.41
60099;BME280;62818;49.394;8.686;2023-07-13T01:47:41;100322.69;;;21.45;56.52
60099;BME280;62818;49.394;8.686;2023-07-13T01:48:42;100333.69;;;21.60;56.12
60099;BME280;62818;49.394;8.686;2023-07-13T01:49:42;100340.59;;;21.18;56.66
60099;BME280;62818;49.394;8.686;2023-07-13T01:50:43;100329.81;;;21.34;57.26
60099;BME280;62818;49.394;8.686;2023-07-13T01:51:43;100337.53;;;20.98;59.26
60099;BME280;62818;49.394;8.686;2023-07-13T01:52:44;100333.69;;;20.94;58.72
60099;BME280;62818;49.394;8.686;2023-07-13T01:53:44;100335.19;;;20.73;60.20
60099;BME280;62818;49.394;8.686;2023-07-13T01:54:45;100334.59;;;20.54;60.38
60099;BME280;62818;49.394;8.686;2023-07-13T01:55:46;100326.59;;;20.31;60.74
60099;BME280;62818;49.394;8.686;2023-07-13T01:56:47;100340.38;;;20.75;60.66
60099;BME280;62818;49.394;8.686;2023-07-13T01:57:48;100337.38;;;21.37;57.97
60099;BME280;62818;49.394;8.686;2023-07-13T01:58:49;100338.03;;;20.66;59.19
60099;BME280;62818;49.394;8.686;2023-07-13T01:59:49;100328.97;;;20.28;60.88
60099;BME280;62818;49.394;8.686;2023-07-13T02:00:51;100331.81;;;20.21;61.51
60099;BME280;62818;49.394;8.686;2023-07-13T02:01:52;100334.84;;;20.13;60.75
60099;BME280;62818;49.394;8.686;2023-07-13T02:02:52;100345.13;;;19.65;63.61
60099;BME280;62818;49.394;8.686;2023-07-13T02:03:53;100342.34;;;20.79;60.72
60099;BME280;62818;49.394;8.686;2023-07-13T02:04:53;100335.88;;;20.35;60.47
60099;BME280;62818;49.394;8.686;2023-07-13T02:05:53;100336.56;;;20.59;60.56
60099;BME280;62818;49.394;8.686;2023-07-13T02:06:54;100340.88;;;20.88;59.98
60099;BME280;62818;49.394;8.686;2023-07-13T02:07:55;100338.78;;;21.07;59.08
60099;BME280;62818;49.394;8.686;2023-07-13T02:08:57;100341.00;;;21.10;58.87
60099;BME280;62818;49.394;8.686;2023-07-13T02:09:58;100336.44;;;20.65;59.38
60099;BME280;62818;49.394;8.686;2023-07-13T02:10:59;100339.94;;;19.98;62.78
60099;BME280;62818;49.394;8.686;2023-07-13T02:12:00;100330.78;;;19.99;63.29
60099;BME280;62818;49.394;8.686;2023-07-13T02:13:01;100346.88;;;19.71;64.20
60099;BME280;62818;49.394;8.686;2023-07-13T02:14:02;100342.44;;;19.42;65.03
60099;BME280;62818;49.394;8.686;2023-07-13T02:15:03;100343.84;;;19.56;65.19
60099;BME280;62818;49.394;8.686;2023-07-13T02:16:04;100343.72;;;20.25;63.08
60099;BME280;62818;49.394;8.686;2023-07-13T02:17:05;100342.72;;;20.43;61.80
60099;BME280;62818;49.394;8.686;2023-07-13T02:18:06;100341.34;;;19.89;63.15
60099;BME280;62818;49.394;8.686;2023-07-13T02:19:07;100338.88;;;20.39;61.96
60099;BME280;62818;49.394;8.686;2023-07-13T02:20:08;100334.94;;;20.18;62.28
60099;BME280;62818;49.394;8.686;2023-07-13T02:21:09;100338.34;;;20.25;62.87
60099;BME280;62818;49.394;8.686;2023-07-13T02:22:10;100329.75;;;20.00;63.22
60099;BME280;62818;49.394;8.686;2023-07-13T02:23:11;100330.13;;;20.20;63.31
60099;BME280;62818;49.394;8.686;2023-07-13T02:24:12;100338.41;;;20.02;62.71
60099;BME280;62818;49.394;8.686;2023-07-13T02:25:17;100330.13;;;20.60;61.70
60099;BME280;62818;49.394;8.686;2023-07-13T02:26:18;100332.03;;;19.57;64.34
60099;BME280;62818;49.394;8.686;2023-07-13T02:27:19;100333.09;;;20.07;64.23
60099;BME280;62818;49.394;8.686;2023-07-13T02:28:19;100334.38;;;20.28;63.02
60099;BME280;62818;49.394;8.686;2023-07-13T02:29:20;100326.03;;;20.29;62.03
60099;BME280;62818;49.394;8.686;2023-07-13T02:30:21;100331.19;;;20.19;62.23
60099;BME280;62818;49.394;8.686;2023-07-13T02:31:24;100326.72;;;20.36;63.29
60099;BME280;62818;49.394;8.686;2023-07-13T02:32:25;100333.50;;;20.39;62.82
60099;BME280;62818;49.394;8.686;2023-07-13T02:33:26;100335.72;;;20.42;62.85
60099;BME280;62818;49.394;8.686;2023-07-13T02:34:27;100326.09;;;20.06;63.62
60099;BME280;62818;49.394;8.686;2023-07-13T02:35:27;100332.63;;;19.47;65.57
60099;BME280;62818;49.394;8.686;2023-07-13T02:36:28;100330.34;;;19.33;66.78
60099;BME280;62818;49.394;8.686;2023-07-13T02:37:29;100335.59;;;19.97;65.38
60099;BME280;62818;49.394;8.686;2023-07-13T02:38:30;100330.03;;;20.55;62.69
60099;BME280;62818;49.394;8.686;2023-07-13T02:39:31;100325.38;;;20.22;63.42
60099;BME280;62818;49.394;8.686;2023-07-13T02:40:33;100336.09;;;20.62;61.67
60099;BME280;62818;49.394;8.686;2023-07-13T02:41:35;100340.72;;;19.98;63.95
60099;BME280;62818;49.394;8.686;2023-07-13T02:42:35;100343.09;;;19.72;64.16
60099;BME280;62818;49.394;8.686;2023-07-13T02:43:37;100339.59;;;19.83;64.12
60099;BME280;62818;49.394;8.686;2023-07-13T02:44:37;100343.34;;;19.70;64.21
60099;BME280;62818;49.394;8.686;2023-07-13T02:45:38;100338.78;;;19.71;65.12
60099;BME280;62818;49.394;8.686;2023-07-13T02:46:39;100345.44;;;19.80;64.74
60099;BME280;62818;49.394;8.686;2023-07-13T02:47:41;100345.53;;;20.48;62.03
60099;BME280;62818;49.394;8.686;2023-07-13T02:48:42;100341.03;;;20.53;62.18
60099;BME280;62818;49.394;8.686;2023-07-13T02:49:42;100350.03;;;20.19;62.88
60099;BME280;62818;49.394;8.686;2023-07-13T02:50:44;100349.47;;;20.17;61.48
60099;BME280;62818;49.394;8.686;2023-07-13T02:51:45;100355.19;;;19.58;64.13
60099;BME280;62818;49.394;8.686;2023-07-13T02:52:45;100352.56;;;19.16;66.31
60099;BME280;62818;49.394;8.686;2023-07-13T02:53:46;100358.94;;;19.04;66.86
60099;BME280;62818;49.394;8.686;2023-07-13T02:54:46;100360.06;;;19.61;65.29
60099;BME280;62818;49.394;8.686;2023-07-13T02:55:47;100352.69;;;19.91;64.04
60099;BME280;62818;49.394;8.686;2023-07-13T02:56:47;100352.94;;;19.78;64.56
60099;BME280;62818;49.394;8.686;2023-07-13T02:57:48;100356.22;;;20.31;63.41
60099;BME280;62818;49.394;8.686;2023-07-13T02:58:49;100361.59;;;20.31;63.06
60099;BME280;62818;49.394;8.686;2023-07-13T02:59:49;100356.13;;;20.83;61.23
60099;BME280;62818;49.394;8.686;2023-07-13T03:00:50;100355.25;;;20.94;60.85
60099;BME280;62818;49.394;8.686;2023-07-13T03:01:50;100355.88;;;20.84;60.92
60099;BME280;62818;49.394;8.686;2023-07-13T03:02:52;100352.91;;;20.01;63.46
60099;BME280;62818;49.394;8.686;2023-07-13T03:03:52;100357.38;;;19.84;65.74
60099;BME280;62818;49.394;8.686;2023-07-13T03:04:55;100350.19;;;20.52;62.91
60099;BME280;62818;49.394;8.686;2023-07-13T03:06:01;100345.69;;;19.44;65.88
60099;BME280;62818;49.394;8.686;2023-07-13T03:07:04;100352.25;;;19.36;67.62
60099;BME280;62818;49.394;8.686;2023-07-13T03:08:04;100351.41;;;19.82;65.52
60099;BME280;62818;49.394;8.686;2023-07-13T03:09:06;100356.47;;;19.55;66.33
60099;BME280;62818;49.394;8.686;2023-07-13T03:10:07;100359.28;;;19.60;65.27
60099;BME280;62818;49.394;8.686;2023-07-13T03:11:09;100345.03;;;20.11;63.56
60099;BME280;62818;49.394;8.686;2023-07-13T03:12:13;100354.03;;;19.54;66.05
60099;BME280;62818;49.394;8.686;2023-07-13T03:13:13;100352.50;;;20.32;63.78
60099;BME280;62818;49.394;8.686;2023-07-13T03:14:14;100355.41;;;19.68;64.56
60099;BME280;62818;49.394;8.686;2023-07-13T03:15:14;100354.22;;;19.64;64.93
60099;BME280;62818;49.394;8.686;2023-07-13T03:16:16;100357.50;;;19.54;66.90
60099;BME280;62818;49.394;8.686;2023-07-13T03:17:16;100351.84;;;19.33;67.27
60099;BME280;62818;49.394;8.686;2023-07-13T03:18:17;100354.53;;;20.02;65.42
60099;BME280;62818;49.394;8.686;2023-07-13T03:19:18;100358.34;;;20.29;63.56
60099;BME280;62818;49.394;8.686;2023-07-13T03:20:19;100353.94;;;19.07;68.10
60099;BME280;62818;49.394;8.686;2023-07-13T03:21:19;100355.59;;;20.01;65.30
60099;BME280;62818;49.394;8.686;2023-07-13T03:22:21;100356.13;;;20.15;64.59
60099;BME280;62818;49.394;8.686;2023-07-13T03:23:22;100353.09;;;20.23;63.64
60099;BME280;62818;49.394;8.686;2023-07-13T03:24:23;100352.97;;;20.29;63.17
60099;BME280;62818;49.394;8.686;2023-07-13T03:25:25;100347.19;;;19.86;63.82
60099;BME280;62818;49.394;8.686;2023-07-13T03:26:26;100343.69;;;19.28;67.29
60099;BME280;62818;49.394;8.686;2023-07-13T03:27:26;100349.06;;;19.74;66.22
60099;BME280;62818;49.394;8.686;2023-07-13T03:28:27;100345.41;;;19.91;64.80
60099;BME280;62818;49.394;8.686;2023-07-13T03:29:27;100354.81;;;19.77;64.49
60099;BME280;62818;49.394;8.686;2023-07-13T03:30:28;100348.78;;;20.10;63.96
60099;BME280;62818;49.394;8.686;2023-07-13T03:31:32;100352.03;;;20.35;62.91
60099;BME280;62818;49.394;8.686;2023-07-13T03:32:34;100349.09;;;20.37;62.37
60099;BME280;62818;49.394;8.686;2023-07-13T03:33:35;100353.25;;;20.44;61.84
60099;BME280;62818;49.394;8.686;2023-07-13T03:34:35;100354.28;;;20.15;62.38
60099;BME280;62818;49.394;8.686;2023-07-13T03:35:40;100358.59;;;20.16;63.36
60099;BME280;62818;49.394;8.686;2023-07-13T03:36:41;100352.41;;;20.16;63.45
60099;BME280;62818;49.394;8.686;2023-07-13T03:37:41;100363.44;;;19.91;62.79
60099;BME280;62818;49.394;8.686;2023-07-13T03:38:42;100362.50;;;19.85;63.60
60099;BME280;62818;49.394;8.686;2023-07-13T03:39:43;100357.44;;;20.01;63.13
60099;BME280;62818;49.394;8.686;2023-07-13T03:40:43;100366.63;;;19.65;63.75
60099;BME280;62818;49.394;8.686;2023-07-13T03:41:44;100360.44;;;19.76;64.32
60099;BME280;62818;49.394;8.686;2023-07-13T03:42:44;100358.84;;;20.26;62.63
60099;BME280;62818;49.394;8.686;2023-07-13T03:43:45;100363.44;;;19.91;62.92
60099;BME280;62818;49.394;8.686;2023-07-13T03:44:45;100367.31;;;19.72;63.04
60099;BME280;62818;49.394;8.686;2023-07-13T03:45:52;100368.59;;;19.92;62.78
60099;BME280;62818;49.394;8.686;2023-07-13T03:46:52;100372.25;;;20.38;60.93
60099;BME280;62818;49.394;8.686;2023-07-13T03:47:53;100370.88;;;20.12;61.68
60099;BME280;62818;49.394;8.686;2023-07-13T03:48:53;100370.38;;;20.38;61.60
60099;BME280;62818;49.394;8.686;2023-07-13T03:49:54;100375.00;;;20.03;61.10
60099;BME280;62818;49.394;8.686;2023-07-13T03:50:54;100369.63;;;20.03;62.56
60099;BME280;62818;49.394;8.686;2023-07-13T03:51:55;100374.41;;;20.24;61.26
60099;BME280;62818;49.394;8.686;2023-07-13T03:52:56;100374.19;;;20.54;60.63
60099;BME280;62818;49.394;8.686;2023-07-13T03:53:57;100374.53;;;20.06;60.76
60099;BME280;62818;49.394;8.686;2023-07-13T03:54:58;100373.84;;;20.22;61.44
60099;BME280;62818;49.394;8.686;2023-07-13T03:55:58;100378.31;;;19.82;61.53
60099;BME280;62818;49.394;8.686;2023-07-13T03:56:59;100377.38;;;19.88;62.73
60099;BME280;62818;49.394;8.686;2023-07-13T03:58:26;100374.53;;;20.18;61.48
60099;BME280;62818;49.394;8.686;2023-07-13T03:59:29;100376.91;;;19.68;63.09
60099;BME280;62818;49.394;8.686;2023-07-13T04:00:29;100376.16;;;20.30;61.30
60099;BME280;62818;49.394;8.686;2023-07-13T04:01:30;100376.53;;;20.11;60.31
60099;BME280;62818;49.394;8.686;2023-07-13T04:02:31;100375.00;;;20.54;59.88
60099;BME280;62818;49.394;8.686;2023-07-13T04:03:32;100375.63;;;20.45;59.21
60099;BME280;62818;49.394;8.686;2023-07-13T04:04:33;100380.13;;;20.16;60.46
60099;BME280;62818;49.394;8.686;2023-07-13T04:05:34;100372.72;;;20.35;60.21
60099;BME280;62818;49.394;8.686;2023-07-13T04:06:34;100372.41;;;20.20;60.52
60099;BME280;62818;49.394;8.686;2023-07-13T04:07:35;100379.25;;;19.76;62.62
60099;BME280;62818;49.394;8.686;2023-07-13T04:08:36;100379.72;;;19.73;62.92
60099;BME280;62818;49.394;8.686;2023-07-13T04:09:37;100367.22;;;20.41;60.73
60099;BME280;62818;49.394;8.686;2023-07-13T04:10:37;100377.56;;;20.61;59.78
60099;BME280;62818;49.394;8.686;2023-07-13T04:11:38;100375.47;;;20.51;59.86
60099;BME280;62818;49.394;8.686;2023-07-13T04:12:39;100376.16;;;20.30;60.21
60099;BME280;62818;49.394;8.686;2023-07-13T04:13:39;100369.50;;;20.49;59.89
60099;BME280;62818;49.394;8.686;2023-07-13T04:14:40;100377.81;;;20.59;59.62
60099;BME280;62818;49.394;8.686;2023-07-13T04:15:40;100376.03;;;20.53;59.88
60099;BME280;62818;49.394;8.686;2023-07-13T04:16:41;100368.47;;;19.99;60.75
60099;BME280;62818;49.394;8.686;2023-07-13T04:17:42;100373.19;;;19.69;62.69
60099;BME280;62818;49.394;8.686;2023-07-13T04:18:43;100374.56;;;19.83;62.43
60099;BME280;62818;49.394;8.686;2023-07-13T04:19:44;100375.75;;;19.87;63.01
60099;BME280;62818;49.394;8.686;2023-07-13T04:20:44;100374.53;;;20.06;62.29
60099;BME280;62818;49.394;8.686;2023-07-13T04:21:45;100377.97;;;20.41;61.14
60099;BME280;62818;49.394;8.686;2023-07-13T04:22:46;100379.25;;;20.50;60.32
60099;BME280;62818;49.394;8.686;2023-07-13T04:23:47;100377.28;;;20.34;60.66
60099;BME280;62818;49.394;8.686;2023-07-13T04:24:47;100388.94;;;20.51;60.46
60099;BME280;62818;49.394;8.686;2023-07-13T04:25:49;100384.28;;;19.95;61.22
60099;BME280;62818;49.394;8.686;2023-07-13T04:26:52;100381.47;;;19.90;62.48
60099;BME280;62818;49.394;8.686;2023-07-13T04:27:53;100385.19;;;19.89;62.58
60099;BME280;62818;49.394;8.686;2023-07-13T04:28:55;100390.69;;;20.06;62.51
60099;BME280;62818;49.394;8.686;2023-07-13T04:29:56;100393.75;;;19.75;62.50
60099;BME280;62818;49.394;8.686;2023-07-13T04:30:56;100387.97;;;20.18;61.77
60099;BME280;62818;49.394;8.686;2023-07-13T04:31:57;100392.53;;;20.17;61.33
60099;BME280;62818;49.394;8.686;2023-07-13T04:32:57;100395.13;;;20.01;61.32
60099;BME280;62818;49.394;8.686;2023-07-13T04:33:58;100398.31;;;19.98;62.29
60099;BME280;62818;49.394;8.686;2023-07-13T04:34:58;100395.69;;;20.37;61.05
60099;BME280;62818;49.394;8.686;2023-07-13T04:35:59;100394.88;;;20.25;61.06
60099;BME280;62818;49.394;8.686;2023-07-13T04:37:02;100398.38;;;20.37;61.02
60099;BME280;62818;49.394;8.686;2023-07-13T04:38:04;100392.53;;;20.17;60.75
60099;BME280;62818;49.394;8.686;2023-07-13T04:39:05;100399.94;;;19.64;63.04
60099;BME280;62818;49.394;8.686;2023-07-13T04:40:07;100387.66;;;19.91;62.78
60099;BME280;62818;49.394;8.686;2023-07-13T04:41:14;100385.03;;;20.19;62.12
60099;BME280;62818;49.394;8.686;2023-07-13T04:42:15;100387.75;;;20.31;61.77
60099;BME280;62818;49.394;8.686;2023-07-13T04:43:16;100389.25;;;20.15;61.98
60099;BME280;62818;49.394;8.686;2023-07-13T04:44:16;100392.03;;;20.20;61.95
60099;BME280;62818;49.394;8.686;2023-07-13T04:45:17;100391.63;;;19.88;63.25
60099;BME280;62818;49.394;8.686;2023-07-13T04:46:18;100388.38;;;19.98;63.08
60099;BME280;62818;49.394;8.686;2023-07-13T04:47:19;100395.97;;;20.52;61.49
60099;BME280;62818;49.394;8.686;2023-07-13T04:48:20;100397.69;;;20.07;63.23
60099;BME280;62818;49.394;8.686;2023-07-13T04:49:20;100396.91;;;19.49;65.50
60099;BME280;62818;49.394;8.686;2023-07-13T04:50:21;100398.47;;;19.27;68.30
60099;BME280;62818;49.394;8.686;2023-07-13T04:51:23;100404.03;;;19.55;66.42
60099;BME280;62818;49.394;8.686;2023-07-13T04:52:24;100399.16;;;19.52;66.13
60099;BME280;62818;49.394;8.686;2023-07-13T04:53:25;100401.38;;;19.13;68.07
60099;BME280;62818;49.394;8.686;2023-07-13T04:54:26;100395.56;;;19.16;67.78
60099;BME280;62818;49.394;8.686;2023-07-13T04:55:27;100395.50;;;19.58;66.57
60099;BME280;62818;49.394;8.686;2023-07-13T04:56:30;100402.97;;;19.44;67.50
60099;BME280;62818;49.394;8.686;2023-07-13T04:57:31;100406.81;;;19.37;67.93
60099;BME280;62818;49.394;8.686;2023-07-13T04:58:33;100401.81;;;19.63;66.11
60099;BME280;62818;49.394;8.686;2023-07-13T04:59:34;100398.69;;;19.78;65.47
60099;BME280;62818;49.394;8.686;2023-07-13T05:00:34;100406.06;;;20.45;63.42
60099;BME280;62818;49.394;8.686;2023-07-13T05:01:35;100396.84;;;20.69;62.18
60099;BME280;62818;49.394;8.686;2023-07-13T05:02:37;100401.34;;;20.81;61.79
60099;BME280;62818;49.394;8.686;2023-07-13T05:03:39;100400.84;;;20.55;62.29
60099;BME280;62818;49.394;8.686;2023-07-13T05:04:39;100402.13;;;20.64;62.04
60099;BME280;62818;49.394;8.686;2023-07-13T05:05:40;100405.41;;;20.15;62.60
60099;BME280;62818;49.394;8.686;2023-07-13T05:06:40;100398.94;;;20.67;62.21
60099;BME280;62818;49.394;8.686;2023-07-13T05:07:41;100405.03;;;20.75;61.84
60099;BME280;62818;49.394;8.686;2023-07-13T05:08:41;100401.59;;;20.79;61.98
60099;BME280;62818;49.394;8.686;2023-07-13T05:09:42;100400.31;;;20.82;61.62
60099;BME280;62818;49.394;8.686;2023-07-13T05:10:42;100398.81;;;20.74;61.79
60099;BME280;62818;49.394;8.686;2023-07-13T05:11:43;100408.97;;;20.84;61.67
60099;BME280;62818;49.394;8.686;2023-07-13T05:12:44;100405.31;;;20.61;61.46
60099;BME280;62818;49.394;8.686;2023-07-13T05:13:44;100407.75;;;20.63;61.24
60099;BME280;62818;49.394;8.686;2023-07-13T05:14:45;100400.56;;;20.40;62.58
60099;BME280;62818;49.394;8.686;2023-07-13T05:15:47;100410.03;;;20.43;62.75
60099;BME280;62818;49.394;8.686;2023-07-13T05:16:55;100404.78;;;20.48;62.33
60099;BME280;62818;49.394;8.686;2023-07-13T05:17:57;100405.88;;;20.12;63.20
60099;BME280;62818;49.394;8.686;2023-07-13T05:18:58;100405.75;;;20.07;63.71
60099;BME280;62818;49.394;8.686;2023-07-13T05:19:58;100408.41;;;20.42;62.92
60099;BME280;62818;49.394;8.686;2023-07-13T05:21:08;100412.34;;;20.00;63.28
60099;BME280;62818;49.394;8.686;2023-07-13T05:22:10;100407.97;;;20.33;63.49
60099;BME280;62818;49.394;8.686;2023-07-13T05:23:11;100407.34;;;20.71;61.50